createdAt,value
2018-08-10T00:01:53.461Z,9.30
2018-08-10T00:04:57.681Z,9.37
2018-08-10T00:08:01.907Z,8.37
2018-08-10T00:11:06.168Z,7.00
2018-08-10T00:14:10.402Z,6.30
2018-08-10T00:17:14.748Z,6.33
2018-08-10T00:20:18.961Z,5.80
2018-08-10T00:23:23.190Z,6.17
2018-08-10T00:26:27.400Z,4.77
2018-08-10T00:29:31.612Z,4.77
2018-08-10T00:32:35.855Z,4.73
2018-08-10T00:35:40.060Z,4.00
2018-08-10T00:38:44.265Z,3.47
2018-08-10T00:41:48.476Z,2.90
2018-08-10T00:44:52.732Z,2.10
2018-08-10T00:47:56.979Z,2.20
2018-08-10T00:51:01.253Z,2.00
2018-08-10T00:54:05.465Z,1.80
2018-08-10T00:57:09.684Z,1.80
2018-08-10T01:00:18.360Z,2.03
2018-08-10T01:03:22.601Z,1.90
2018-08-10T01:06:26.808Z,2.10
2018-08-10T01:09:31.033Z,1.90
2018-08-10T01:12:35.236Z,2.10
2018-08-10T01:15:39.438Z,1.97
2018-08-10T01:18:43.624Z,2.43
2018-08-10T01:21:47.881Z,2.00
2018-08-10T01:24:52.085Z,2.17
2018-08-10T01:27:57.679Z,2.10
2018-08-10T01:31:01.884Z,2.80
2018-08-10T01:34:06.180Z,2.67
2018-08-10T01:37:10.410Z,3.23
2018-08-10T01:40:14.744Z,3.47
2018-08-10T01:43:18.977Z,3.03
2018-08-10T01:46:23.194Z,3.43
2018-08-10T01:49:27.428Z,2.57
2018-08-10T01:52:31.655Z,2.83
2018-08-10T01:55:35.872Z,2.70
2018-08-10T01:58:40.077Z,2.57
2018-08-10T02:01:44.345Z,2.10
2018-08-10T02:04:48.586Z,2.40
2018-08-10T02:07:52.801Z,1.97
2018-08-10T02:10:57.041Z,1.93
2018-08-10T02:14:01.268Z,2.40
2018-08-10T02:17:05.526Z,2.20
2018-08-10T02:20:12.339Z,2.03
2018-08-10T02:23:16.578Z,2.70
2018-08-10T02:26:20.773Z,2.30
2018-08-10T02:29:25.030Z,2.90
2018-08-10T02:32:29.217Z,2.20
2018-08-10T02:35:33.420Z,2.00
2018-08-10T02:38:37.621Z,2.40
2018-08-10T02:41:41.832Z,2.17
2018-08-10T02:44:46.054Z,2.70
2018-08-10T02:47:50.759Z,2.40
2018-08-10T02:50:54.985Z,2.43
2018-08-10T02:53:59.358Z,2.70
2018-08-10T02:57:03.565Z,2.20
2018-08-10T03:00:10.457Z,1.93
2018-08-10T03:03:14.669Z,1.83
2018-08-10T03:06:18.892Z,2.90
2018-08-10T03:09:23.301Z,2.40
2018-08-10T03:12:27.528Z,2.23
2018-08-10T03:15:31.777Z,2.80
2018-08-10T03:18:35.990Z,2.30
2018-08-10T03:21:40.215Z,2.00
2018-08-10T03:24:44.409Z,2.57
2018-08-10T03:27:48.663Z,2.33
2018-08-10T03:30:52.860Z,2.30
2018-08-10T03:33:57.081Z,3.00
2018-08-10T03:37:01.309Z,2.63
2018-08-10T03:40:08.430Z,2.73
2018-08-10T03:43:12.633Z,2.40
2018-08-10T03:46:16.837Z,2.37
2018-08-10T03:49:21.065Z,3.30
2018-08-10T03:52:25.293Z,2.57
2018-08-10T03:55:29.518Z,3.53
2018-08-10T03:58:33.732Z,2.70
2018-08-10T04:01:37.969Z,3.33
2018-08-10T04:04:42.218Z,2.93
2018-08-10T04:07:46.417Z,3.07
2018-08-10T04:10:50.608Z,2.93
2018-08-10T04:13:54.820Z,2.97
2018-08-10T04:16:59.033Z,3.17
2018-08-10T04:20:03.224Z,2.90
2018-08-10T04:23:07.857Z,2.20
2018-08-10T04:26:12.061Z,2.20
2018-08-10T04:29:16.356Z,1.73
2018-08-10T04:32:20.874Z,2.50
2018-08-10T04:35:25.090Z,1.60
2018-08-10T04:38:29.306Z,2.37
2018-08-10T04:41:33.529Z,2.23
2018-08-10T04:44:37.720Z,2.93
2018-08-10T04:47:47.817Z,2.60
2018-08-10T04:50:52.061Z,2.57
2018-08-10T04:53:56.273Z,1.97
2018-08-10T04:57:00.516Z,3.13
2018-08-10T05:00:06.509Z,2.33
2018-08-10T05:03:10.721Z,3.17
2018-08-10T05:06:14.957Z,1.97
2018-08-10T05:09:19.221Z,2.63
2018-08-10T05:12:23.406Z,2.80
2018-08-10T05:15:27.608Z,2.37
2018-08-10T05:18:31.817Z,2.70
2018-08-10T05:21:36.185Z,2.73
2018-08-10T05:24:40.405Z,2.63
2018-08-10T05:27:44.612Z,2.67
2018-08-10T05:30:48.849Z,3.10
2018-08-10T05:33:53.069Z,2.30
2018-08-10T05:36:57.332Z,2.20
2018-08-10T05:40:01.574Z,2.60
2018-08-10T05:43:05.825Z,1.90
2018-08-10T05:46:10.069Z,1.90
2018-08-10T05:49:14.319Z,2.00
2018-08-10T05:52:18.605Z,2.23
2018-08-10T05:55:22.828Z,1.97
2018-08-10T05:58:27.016Z,1.77
2018-08-10T06:01:31.236Z,2.23
2018-08-10T06:04:35.457Z,1.90
2018-08-10T06:07:39.670Z,2.00
2018-08-10T06:10:43.893Z,2.47
2018-08-10T06:13:48.109Z,1.73
2018-08-10T06:16:52.309Z,2.30
2018-08-10T06:19:56.631Z,1.90
2018-08-10T06:23:00.841Z,1.83
2018-08-10T06:26:05.012Z,1.87
2018-08-10T06:29:09.204Z,1.80
2018-08-10T06:32:13.409Z,1.80
2018-08-10T06:35:17.618Z,1.67
2018-08-10T06:38:21.856Z,1.80
2018-08-10T06:41:26.065Z,2.03
2018-08-10T06:44:30.264Z,1.73
2018-08-10T06:47:34.476Z,1.60
2018-08-10T06:50:38.684Z,2.20
2018-08-10T06:53:42.901Z,1.27
2018-08-10T06:56:47.132Z,2.10
2018-08-10T06:59:51.309Z,1.60
2018-08-10T07:02:55.549Z,1.60
2018-08-10T07:05:59.736Z,1.77
2018-08-10T07:09:04.493Z,1.83
2018-08-10T07:12:08.709Z,2.07
2018-08-10T07:15:12.979Z,2.30
2018-08-10T07:18:17.213Z,1.93
2018-08-10T07:21:21.461Z,2.57
2018-08-10T07:24:25.721Z,2.10
2018-08-10T07:27:29.942Z,1.87
2018-08-10T07:30:34.221Z,1.73
2018-08-10T07:33:38.472Z,2.07
2018-08-10T07:36:42.707Z,2.00
2018-08-10T07:39:46.914Z,1.77
2018-08-10T07:42:51.178Z,2.47
2018-08-10T07:45:55.369Z,1.50
2018-08-10T07:48:59.604Z,1.83
2018-08-10T07:52:03.880Z,1.67
2018-08-10T07:55:08.112Z,1.30
2018-08-10T07:58:12.323Z,1.23
2018-08-10T08:01:16.582Z,1.50
2018-08-10T08:04:20.785Z,1.43
2018-08-10T08:07:25.013Z,2.00
2018-08-10T08:10:29.346Z,1.00
2018-08-10T08:13:33.733Z,1.20
2018-08-10T08:16:38.061Z,1.53
2018-08-10T08:19:42.345Z,1.50
2018-08-10T08:22:46.497Z,0.77
2018-08-10T08:25:50.741Z,1.43
2018-08-10T08:28:54.956Z,1.37
2018-08-10T08:31:59.205Z,1.40
2018-08-10T08:35:03.505Z,1.37
2018-08-10T08:39:28.021Z,1.30
2018-08-10T08:42:32.261Z,1.27
2018-08-10T08:45:46.455Z,1.60
2018-08-10T08:48:51.613Z,1.10
2018-08-10T08:51:55.866Z,1.33
2018-08-10T08:55:17.229Z,1.80
2018-08-10T08:58:21.589Z,1.53
2018-08-10T09:01:25.825Z,1.33
2018-08-10T09:04:49.521Z,1.93
2018-08-10T09:07:53.730Z,1.67
2018-08-10T09:10:59.120Z,1.90
2018-08-10T09:15:08.464Z,1.30
2018-08-10T09:18:12.780Z,1.00
2018-08-10T09:21:17.005Z,0.87
2018-08-10T09:24:21.225Z,1.27
2018-08-10T09:27:25.425Z,0.90
2018-08-10T09:30:29.642Z,0.87
2018-08-10T09:33:33.856Z,1.13
2018-08-10T09:36:38.072Z,0.70
2018-08-10T09:39:42.310Z,1.10
2018-08-10T09:42:47.037Z,0.57
2018-08-10T09:45:51.286Z,0.80
2018-08-10T09:48:55.505Z,1.13
2018-08-10T09:51:59.770Z,0.90
2018-08-10T09:55:28.887Z,0.90
2018-08-10T09:58:33.146Z,1.30
2018-08-10T10:01:43.467Z,1.07
2018-08-10T10:04:47.789Z,1.60
2018-08-10T10:07:52.041Z,1.30
2018-08-10T10:10:56.262Z,1.43
2018-08-10T10:14:00.495Z,1.30
2018-08-10T10:17:04.745Z,1.77
2018-08-10T10:20:09.271Z,1.20
2018-08-10T10:23:13.516Z,1.07
2018-08-10T10:26:17.731Z,1.10
2018-08-10T10:29:21.944Z,0.57
2018-08-10T10:32:26.158Z,0.57
2018-08-10T10:35:30.397Z,0.50
2018-08-10T10:38:34.609Z,0.40
2018-08-10T10:41:39.006Z,0.50
2018-08-10T10:44:43.222Z,0.83
2018-08-10T10:47:49.703Z,0.90
2018-08-10T10:50:53.930Z,0.90
2018-08-10T10:53:58.185Z,1.13
2018-08-10T10:57:03.145Z,1.13
2018-08-10T11:00:16.312Z,1.00
2018-08-10T11:03:20.613Z,1.10
2018-08-10T11:06:24.907Z,1.23
2018-08-10T11:09:29.168Z,1.17
2018-08-10T11:12:33.461Z,1.20
2018-08-10T11:15:37.694Z,1.40
2018-08-10T11:18:42.102Z,1.00
2018-08-10T11:21:46.397Z,1.20
2018-08-10T11:24:50.667Z,1.00
2018-08-10T11:27:55.612Z,1.13
2018-08-10T11:30:59.887Z,0.90
2018-08-10T11:34:04.192Z,1.30
2018-08-10T11:37:08.605Z,1.07
2018-08-10T11:40:15.662Z,1.17
2018-08-10T11:43:20.250Z,1.13
2018-08-10T11:46:24.533Z,1.07
2018-08-10T11:49:28.742Z,1.40
2018-08-10T11:52:33.109Z,1.53
2018-08-10T11:55:37.373Z,1.17
2018-08-10T11:58:42.684Z,1.60
2018-08-10T12:01:47.181Z,1.10
2018-08-10T12:04:51.483Z,1.50
2018-08-10T12:07:55.842Z,1.13
2018-08-10T12:11:00.102Z,1.67
2018-08-10T12:14:04.529Z,1.27
2018-08-10T12:17:08.805Z,1.00
2018-08-10T12:20:13.108Z,1.03
2018-08-10T12:23:17.374Z,1.03
2018-08-10T12:26:21.759Z,1.20
2018-08-10T12:29:26.098Z,1.33
2018-08-10T12:32:30.345Z,1.13
2018-08-10T12:35:34.617Z,1.00
2018-08-10T12:38:39.698Z,0.90
2018-08-10T12:41:43.957Z,1.30
2018-08-10T12:44:48.257Z,0.80
2018-08-10T12:47:52.517Z,0.90
2018-08-10T12:50:57.927Z,0.77
2018-08-10T12:54:02.174Z,0.70
2018-08-10T12:57:06.470Z,0.63
2018-08-10T13:00:12.417Z,0.53
2018-08-10T13:03:16.703Z,0.60
2018-08-10T13:06:20.841Z,0.80
2018-08-10T13:09:25.085Z,0.90
2018-08-10T13:12:29.301Z,1.07
2018-08-10T13:15:33.568Z,1.07
2018-08-10T13:18:37.765Z,0.90
2018-08-10T13:21:41.990Z,1.00
2018-08-10T13:24:46.251Z,1.07
2018-08-10T13:27:50.489Z,1.10
2018-08-10T13:30:54.729Z,1.23
2018-08-10T13:33:58.992Z,1.07
2018-08-10T13:37:03.243Z,1.13
2018-08-10T13:40:07.477Z,1.33
2018-08-10T13:43:11.697Z,0.90
2018-08-10T13:46:15.916Z,1.17
2018-08-10T13:49:20.157Z,0.90
2018-08-10T13:52:24.405Z,1.00
2018-08-10T13:55:28.621Z,0.70
2018-08-10T13:58:32.838Z,0.80
2018-08-10T14:01:37.114Z,0.80
2018-08-10T14:04:41.436Z,1.10
2018-08-10T14:07:45.738Z,1.00
2018-08-10T14:10:49.952Z,1.30
2018-08-10T14:13:54.232Z,0.90
2018-08-10T14:16:58.683Z,0.90
2018-08-10T14:20:03.064Z,1.13
2018-08-10T14:23:07.397Z,1.30
2018-08-10T14:26:11.650Z,1.27
2018-08-10T14:29:15.890Z,1.30
2018-08-10T14:32:20.133Z,1.30
2018-08-10T14:35:24.365Z,1.90
2018-08-10T14:38:28.647Z,1.47
2018-08-10T14:41:32.909Z,1.70
2018-08-10T14:44:37.152Z,1.43
2018-08-10T14:47:41.417Z,1.60
2018-08-10T14:50:45.713Z,1.37
2018-08-10T14:53:49.934Z,1.50
2018-08-10T14:56:54.379Z,1.80
2018-08-10T14:59:58.625Z,1.70
2018-08-10T15:03:02.860Z,1.80
2018-08-10T15:06:07.108Z,1.90
2018-08-10T15:09:13.345Z,1.50
2018-08-10T15:12:18.156Z,1.40
2018-08-10T15:15:22.204Z,1.20
2018-08-10T15:18:26.421Z,1.00
2018-08-10T15:21:30.650Z,1.00
2018-08-10T15:24:34.878Z,1.50
2018-08-10T15:27:39.639Z,1.83
2018-08-10T15:30:43.914Z,2.23
2018-08-10T15:33:48.472Z,2.77
2018-08-10T15:36:52.712Z,2.50
2018-08-10T15:39:56.981Z,3.20
2018-08-10T15:43:01.213Z,2.00
2018-08-10T15:46:05.713Z,1.73
2018-08-10T15:49:10.004Z,1.43
2018-08-10T15:52:14.287Z,1.70
2018-08-10T15:55:18.585Z,1.23
2018-08-10T15:58:22.828Z,1.20
2018-08-10T16:01:27.068Z,1.13
2018-08-10T16:04:31.375Z,1.30
2018-08-10T16:07:35.607Z,0.93
2018-08-10T16:10:39.828Z,0.90
2018-08-10T16:13:44.050Z,1.27
2018-08-10T16:16:48.272Z,1.00
2018-08-10T16:19:52.496Z,1.20
2018-08-10T16:22:56.733Z,1.30
2018-08-10T16:26:00.998Z,1.00
2018-08-10T16:29:05.657Z,0.97
2018-08-10T16:32:09.938Z,0.80
2018-08-10T16:35:15.083Z,0.70
2018-08-10T16:38:19.354Z,0.97
2018-08-10T16:41:23.630Z,1.00
2018-08-10T16:44:27.867Z,1.20
2018-08-10T16:47:32.066Z,1.50
2018-08-10T16:50:36.296Z,1.00
2018-08-10T16:53:40.501Z,1.10
2018-08-10T16:56:44.750Z,1.23
2018-08-10T16:59:48.965Z,1.70
2018-08-10T17:02:53.208Z,1.60
2018-08-10T17:05:57.432Z,1.70
2018-08-10T17:09:01.669Z,1.20
2018-08-10T17:12:05.909Z,1.33
2018-08-10T17:15:15.876Z,1.50
2018-08-10T17:18:20.081Z,1.67
2018-08-10T17:21:24.300Z,1.47
2018-08-10T17:24:28.503Z,1.70
2018-08-10T17:27:32.708Z,1.40
2018-08-10T17:30:36.917Z,1.30
2018-08-10T17:33:41.233Z,1.97
2018-08-10T17:36:45.440Z,1.37
2018-08-10T17:39:49.665Z,1.23
2018-08-10T17:42:53.896Z,1.23
2018-08-10T17:45:58.104Z,1.57
2018-08-10T17:49:02.316Z,1.03
2018-08-10T17:52:06.557Z,0.80
2018-08-10T17:55:10.808Z,0.80
2018-08-10T17:58:15.020Z,1.10
2018-08-10T18:01:19.243Z,0.70
2018-08-10T18:04:23.476Z,0.77
2018-08-10T18:07:27.715Z,1.20
2018-08-10T18:10:31.897Z,1.00
2018-08-10T18:13:36.120Z,1.13
2018-08-10T18:16:40.360Z,1.53
2018-08-10T18:19:44.586Z,1.00
2018-08-10T18:22:50.313Z,1.00
2018-08-10T18:25:54.536Z,1.10
2018-08-10T18:28:58.792Z,2.40
2018-08-10T18:32:02.962Z,1.00
2018-08-10T18:35:07.984Z,3.70
2018-08-10T18:38:12.187Z,2.00
2018-08-10T18:41:16.448Z,1.10
2018-08-10T18:44:20.640Z,1.23
2018-08-10T18:47:24.850Z,1.30
2018-08-10T18:50:29.251Z,1.60
2018-08-10T18:53:33.419Z,1.63
2018-08-10T18:56:37.649Z,2.03
2018-08-10T18:59:41.912Z,1.80
2018-08-10T19:02:46.321Z,1.60
2018-08-10T19:05:50.544Z,1.60
2018-08-10T19:08:54.772Z,1.70
2018-08-10T19:11:59.040Z,1.57
2018-08-10T19:15:03.240Z,1.83
2018-08-10T19:18:08.624Z,2.07
2018-08-10T19:21:12.859Z,1.67
2018-08-10T19:24:17.055Z,2.00
2018-08-10T19:27:21.326Z,1.93
2018-08-10T19:30:25.986Z,1.97
2018-08-10T19:33:30.228Z,1.57
2018-08-10T19:36:34.453Z,1.80
2018-08-10T19:39:38.707Z,1.70
2018-08-10T19:42:42.897Z,2.47
2018-08-10T19:45:47.124Z,2.27
2018-08-10T19:48:51.621Z,2.40
2018-08-10T19:51:55.857Z,2.30
2018-08-10T19:55:00.061Z,2.20
2018-08-10T19:58:04.350Z,1.90
2018-08-10T20:01:08.564Z,1.90
2018-08-10T20:04:12.845Z,2.27
2018-08-10T20:07:17.046Z,1.60
2018-08-10T20:10:21.293Z,1.83
2018-08-10T20:13:25.488Z,1.60
2018-08-10T20:16:29.694Z,1.83
2018-08-10T20:19:33.912Z,2.03
2018-08-10T20:22:38.140Z,1.60
2018-08-10T20:25:42.357Z,1.77
2018-08-10T20:28:46.584Z,2.07
2018-08-10T20:31:50.788Z,1.70
2018-08-10T20:34:55.068Z,2.00
2018-08-10T20:37:59.261Z,2.27
2018-08-10T20:41:03.472Z,2.30
2018-08-10T20:44:07.833Z,2.10
2018-08-10T20:47:12.049Z,2.33
2018-08-10T20:50:20.166Z,2.73
2018-08-10T20:53:24.385Z,2.60
2018-08-10T20:56:28.662Z,2.30
2018-08-10T20:59:32.885Z,2.70
2018-08-10T21:02:37.152Z,2.57
2018-08-10T21:05:41.353Z,2.53
2018-08-10T21:08:45.577Z,2.30
2018-08-10T21:11:49.838Z,2.77
2018-08-10T21:14:54.048Z,2.33
2018-08-10T21:17:58.308Z,2.73
2018-08-10T21:21:02.529Z,3.20
2018-08-10T21:24:06.782Z,2.97
2018-08-10T21:27:11.125Z,2.90
2018-08-10T21:30:18.740Z,2.80
2018-08-10T21:33:22.982Z,3.00
2018-08-10T21:36:27.224Z,2.77
2018-08-10T21:39:31.489Z,2.70
2018-08-10T21:42:35.736Z,2.70
2018-08-10T21:45:40.016Z,2.60
2018-08-10T21:48:44.218Z,3.20
2018-08-10T21:51:48.482Z,3.00
2018-08-10T21:54:52.740Z,2.87
2018-08-10T21:57:57.019Z,3.27
2018-08-10T22:01:03.025Z,2.87
2018-08-10T22:04:07.296Z,2.53
2018-08-10T22:07:11.589Z,2.87
2018-08-10T22:10:15.806Z,2.70
2018-08-10T22:13:25.480Z,2.80
2018-08-10T22:16:35.018Z,2.43
2018-08-10T22:19:39.249Z,2.47
2018-08-10T22:22:43.457Z,2.50
2018-08-10T22:25:47.832Z,2.70
2018-08-10T22:28:52.036Z,2.60
2018-08-10T22:31:56.299Z,2.60
2018-08-10T22:35:00.484Z,2.80
2018-08-10T22:38:04.696Z,3.23
2018-08-10T22:41:08.949Z,2.90
2018-08-10T22:44:13.259Z,2.90
2018-08-10T22:47:17.496Z,3.03
2018-08-10T22:50:21.716Z,3.00
2018-08-10T22:53:25.988Z,3.03
2018-08-10T22:56:30.269Z,2.77
2018-08-10T22:59:34.451Z,3.40
2018-08-10T23:02:38.714Z,3.30
2018-08-10T23:05:43.005Z,3.00
2018-08-10T23:08:47.270Z,3.00
2018-08-10T23:11:51.460Z,3.20
2018-08-10T23:14:55.648Z,2.70
2018-08-10T23:17:59.894Z,2.77
2018-08-10T23:21:04.136Z,3.03
2018-08-10T23:24:08.394Z,2.80
2018-08-10T23:27:12.602Z,2.93
2018-08-10T23:30:17.468Z,3.10
2018-08-10T23:33:21.677Z,2.93
2018-08-10T23:36:25.893Z,3.20
2018-08-10T23:39:30.106Z,3.13
2018-08-10T23:42:34.341Z,3.20
2018-08-10T23:45:38.584Z,2.87
2018-08-10T23:48:42.788Z,3.10
2018-08-10T23:51:47.001Z,3.10
2018-08-10T23:54:51.213Z,2.93
2018-08-10T23:57:55.453Z,3.33
